Архив погоды в Красных Баках

Метеограмма Красные Баки
Понедельник, 25 Июня
Время местн. Темп Ветер Видим Явления Облачность нижн/средн/верх Атм. давл. Влжн Точка росы ВНГО R Сост. почвы Tg s
Напр Скр Прв ур.ст ур.м изм
03:00 +19.9° Ю,Ю-В 2 3 10 км - облачно с прояснениями 751 761 +0.2 80% +16.3° более 2.5 км - - - -
00:00 +21.5° Ю 1 2 10 км - переменная облачность 751 761 +0.2 74% +16.6° более 2.5 км - - - -
Воскресенье, 24 Июня
Время местн. Темп Ветер Видим Явления Облачность нижн/средн/верх Атм. давл. Влжн Точка росы ВНГО R Сост. почвы Tg s
Напр Скр Прв ур.ст ур.м изм
21:00 +25.9° Ю-В 1 6 20 км - переменная облачность 751 760 +0.6 53% +15.6° более 2.5 км - - - -
18:00 +30.6° Ю,Ю-В 3 7 20 км - облачно с прояснениями 750 760 -0.3 34% +13° 1.5 км 0 - - -
15:00 +31.7° Ю,Ю-В 3 7 20 км - облачно с прояснениями 751 760 -0.2 32% +13° 1.5 км - - - -
12:00 +30.7° Ю-В 4 7 20 км - переменная облачность 751 760 +0.1 36% +14° 1.5 км - - - -
09:00 +27.3° Ю-В 2 4 20 км - переменная облачность 751 760 +0.1 57% +18.1° более 2.5 км - - - -
06:00 +21° Ю-В 1 2 20 км - переменная облачность 751 760 +0.2 80% +17.4° 1.5 км - Сухая (без трещин) - -
03:00 +18.5° Ю,Ю-В 1 2 10 км - облачно 751 760 +0.4 90% +16.9° более 2.5 км - - - -
00:00 +18.6° штиль 0 0 10 км - облачно 750 760 +0.7 85% +16.1° более 2.5 км - - - -
Суббота, 23 Июня
Время местн. Темп Ветер Видим Явления Облачность нижн/средн/верх Атм. давл. Влжн Точка росы ВНГО R Сост. почвы Tg s
Напр Скр Прв ур.ст ур.м изм
21:00 +24° Ю-З 1 1 20 км - переменная облачность 750 759 +0.2 72% +18.7° более 2.5 км - - - -
18:00 +30.1° Ю 2 3 20 км - переменная облачность 749 759 -0.2 43% +16° более 2.5 км - - - -
15:00 +31° Ю 1 4 20 км - переменная облачность 750 759 -0.2 42% +16.4° 1.5 км - - - -
12:00 +29.7° Ю 2 5 20 км - переменная облачность 750 759 0 41% +15.1° 1.5 км - - - -
09:00 +25.5° Ю 1 4 20 км - переменная облачность 750 759 0 61% +17.5° более 2.5 км - - - -
06:00 +17.7° Ю,Ю-В 1 2 20 км - ясно 750 759 +0.4 77% +13.6° более 2.5 км - Влажная (без луж) - -
03:00 +13.9° Ю-В 1 1 10 км - переменная облачность 749 759 +0.2 89% +12.1° более 2.5 км - - - -
00:00 +15.7° штиль 0 3 10 км - облачно с прояснениями 749 759 0 81% +12.4° более 2.5 км - - - -
Пятница, 22 Июня
Время местн. Темп Ветер Видим Явления Облачность нижн/средн/верх Атм. давл. Влжн Точка росы ВНГО R Сост. почвы Tg s
Напр Скр Прв ур.ст ур.м изм
21:00 +19.9° Ю-З 1 5 20 км - переменная облачность 749 759 +0.2 65% +13.2° более 2.5 км - - - -
18:00 +24.9° З,Ю-З 2 6 20 км - переменная облачность 749 758 -0.3 35% +8.6° более 2.5 км 0 - - -
15:00 +25° С-З 2 7 20 км - преимущественно облачно 749 759 -0.5 37% +9.5° более 2.5 км - - - -
12:00 +23.3° С-З 2 - 20 км - преимущественно облачно 750 759 -0.1 37% +8° 1.5 км - - - -
09:00 +20.5° С-З 2 4 20 км - преимущественно облачно 750 759 +0.6 45% +8.2° более 2.5 км - - - -
06:00 +14.1° З,С-З 1 3 20 км - преимущественно облачно 749 759 +0.9 64% +7.4° более 2.5 км - Влажная (без луж) - -
03:00 +11.9° З 4 6 10 км - облачно с прояснениями 748 758 +1 71% +6.8° более 2.5 км - - - -
00:00 +13.2° З 4 5 10 км - переменная облачность 747 757 +1.3 64% +6.5° более 2.5 км - - - -